createdAt,value
2022-09-06T00:01:26.960Z,97228.19
2022-09-06T00:03:55.035Z,97222.75
2022-09-06T00:06:23.035Z,97225.81
2022-09-06T00:08:51.050Z,97226.94
2022-09-06T00:11:19.624Z,97226.75
2022-09-06T00:13:48.524Z,97215.06
2022-09-06T00:16:19.051Z,97220.84
2022-09-06T00:18:48.478Z,97210.63
2022-09-06T00:21:19.053Z,97208.69
2022-09-06T00:23:47.087Z,97211.66
2022-09-06T00:26:15.373Z,97212.81
2022-09-06T00:28:43.511Z,97217.03
2022-09-06T00:31:12.672Z,97217.69
2022-09-06T00:33:41.022Z,97220.41
2022-09-06T00:36:11.215Z,97223.84
2022-09-06T00:38:39.712Z,97231.56
2022-09-06T00:41:10.277Z,97239.38
2022-09-06T00:43:38.581Z,97239.84
2022-09-06T00:46:07.546Z,97234.72
2022-09-06T00:48:36.580Z,97230.66
2022-09-06T00:51:08.394Z,97228.59
2022-09-06T00:53:37.948Z,97230.53
2022-09-06T00:56:06.570Z,97223.53
2022-09-06T00:58:34.705Z,97228.84
2022-09-06T01:01:02.989Z,97225.69
2022-09-06T01:03:31.025Z,97231.81
2022-09-06T01:06:05.121Z,97238.75
2022-09-06T01:08:44.139Z,97245.66
2022-09-06T01:11:28.360Z,97236.69
2022-09-06T01:14:01.535Z,97234.03
2022-09-06T01:16:37.383Z,97239.84
2022-09-06T01:19:27.335Z,97227.69
2022-09-06T01:22:00.707Z,97229.63
2022-09-06T01:25:01.214Z,97229.19
2022-09-06T01:27:45.474Z,97238.81
2022-09-06T01:30:14.736Z,97240.28
2022-09-06T01:32:47.954Z,97241.75
2022-09-06T01:35:22.439Z,97247.53
2022-09-06T01:37:50.692Z,97253.31
2022-09-06T01:40:18.938Z,97246.31
2022-09-06T01:42:50.203Z,97247.44
2022-09-06T01:45:20.850Z,97245.03
2022-09-06T01:47:58.043Z,97250.81
2022-09-06T01:50:52.186Z,97250.72
2022-09-06T01:53:32.494Z,97247.06
2022-09-06T01:56:05.698Z,97252.16
2022-09-06T01:58:52.122Z,97255.91
2022-09-06T02:01:23.470Z,97248.88
2022-09-06T02:03:56.858Z,97246.50
2022-09-06T02:06:28.706Z,97258.06
2022-09-06T02:09:02.076Z,97250.38
2022-09-06T02:11:35.051Z,97257.25
2022-09-06T02:14:08.531Z,97241.63
2022-09-06T02:16:39.672Z,97241.16
2022-09-06T02:19:34.086Z,97229.38
2022-09-06T02:22:04.834Z,97231.97
2022-09-06T02:24:34.685Z,97235.81
2022-09-06T02:27:02.711Z,97239.22
2022-09-06T02:29:32.192Z,97237.16
2022-09-06T02:32:03.031Z,97242.59
2022-09-06T02:34:31.548Z,97241.81
2022-09-06T02:36:59.751Z,97244.88
2022-09-06T02:39:27.766Z,97247.03
2022-09-06T02:41:56.140Z,97239.19
2022-09-06T02:44:24.190Z,97243.84
2022-09-06T02:46:56.947Z,97236.00
2022-09-06T02:49:25.490Z,97230.56
2022-09-06T02:51:53.495Z,97223.53
2022-09-06T02:54:21.512Z,97225.81
2022-09-06T02:56:52.225Z,97231.91
2022-09-06T02:59:20.654Z,97224.88
2022-09-06T03:01:48.895Z,97229.19
2022-09-06T03:04:18.294Z,97231.81
2022-09-06T03:06:46.395Z,97238.69
2022-09-06T03:09:14.859Z,97241.19
2022-09-06T03:11:42.978Z,97240.28
2022-09-06T03:14:11.230Z,97234.84
2022-09-06T03:16:39.365Z,97223.06
2022-09-06T03:19:07.431Z,97233.00
2022-09-06T03:21:36.850Z,97232.34
2022-09-06T03:24:05.223Z,97227.72
2022-09-06T03:26:33.303Z,97232.34
2022-09-06T03:29:01.311Z,97222.31
2022-09-06T03:31:29.416Z,97230.03
2022-09-06T03:33:57.444Z,97232.75
2022-09-06T03:36:25.476Z,97232.75
2022-09-06T03:38:55.019Z,97231.16
2022-09-06T03:41:23.056Z,97230.22
2022-09-06T03:43:51.076Z,97229.78
2022-09-06T03:46:19.186Z,97233.59
2022-09-06T03:48:47.284Z,97232.22
2022-09-06T03:51:15.541Z,97223.59
2022-09-06T03:53:43.575Z,97223.03
2022-09-06T03:56:13.020Z,97222.91
2022-09-06T03:58:41.088Z,97215.41
2022-09-06T04:01:11.875Z,97222.16
2022-09-06T04:03:41.011Z,97218.22
2022-09-06T04:06:09.413Z,97212.63
2022-09-06T04:08:38.168Z,97218.06
2022-09-06T04:11:06.885Z,97220.34
2022-09-06T04:13:37.596Z,97221.47
2022-09-06T04:16:06.454Z,97225.78
2022-09-06T04:18:34.796Z,97216.50
2022-09-06T04:21:02.897Z,97221.47
2022-09-06T04:23:31.019Z,97223.91
2022-09-06T04:26:00.252Z,97227.31
2022-09-06T04:28:28.953Z,97223.31
2022-09-06T04:31:03.966Z,97223.63
2022-09-06T04:33:33.625Z,97214.09
2022-09-06T04:36:02.688Z,97224.31
2022-09-06T04:38:33.201Z,97227.22
2022-09-06T04:41:01.278Z,97221.78
2022-09-06T04:43:29.418Z,97218.59
2022-09-06T04:46:04.297Z,97210.66
2022-09-06T04:48:32.456Z,97217.69
2022-09-06T04:51:00.491Z,97221.53
2022-09-06T04:53:28.583Z,97227.75
2022-09-06T04:55:58.515Z,97230.31
2022-09-06T04:58:26.839Z,97235.28
2022-09-06T05:00:54.995Z,97233.69
2022-09-06T05:03:24.437Z,97232.91
2022-09-06T05:05:52.519Z,97238.97
2022-09-06T05:08:20.624Z,97238.66
2022-09-06T05:10:52.399Z,97234.81
2022-09-06T05:13:20.495Z,97247.75
2022-09-06T05:15:48.600Z,97238.44
2022-09-06T05:18:16.666Z,97247.75
2022-09-06T05:20:52.663Z,97240.38
2022-09-06T05:23:20.762Z,97239.59
2022-09-06T05:25:49.149Z,97243.44
2022-09-06T05:28:17.779Z,97243.88
2022-09-06T05:30:45.979Z,97247.88
2022-09-06T05:33:15.627Z,97251.69
2022-09-06T05:35:43.711Z,97257.13
2022-09-06T05:38:13.151Z,97252.50
2022-09-06T05:40:41.207Z,97248.66
2022-09-06T05:43:09.337Z,97251.81
2022-09-06T05:45:37.569Z,97258.06
2022-09-06T05:48:05.672Z,97263.47
2022-09-06T05:50:33.744Z,97253.91
2022-09-06T05:53:02.196Z,97253.91
2022-09-06T05:55:31.694Z,97266.78
2022-09-06T05:57:59.754Z,97260.25
2022-09-06T06:00:27.803Z,97267.25
2022-09-06T06:02:55.818Z,97273.16
2022-09-06T06:05:23.882Z,97269.34
2022-09-06T06:07:52.158Z,97272.50
2022-09-06T06:10:20.205Z,97277.94
2022-09-06T06:12:50.052Z,97266.44
2022-09-06T06:15:18.160Z,97286.22
2022-09-06T06:17:46.287Z,97291.22
2022-09-06T06:20:14.467Z,97299.00
2022-09-06T06:22:42.706Z,97296.72
2022-09-06T06:25:12.773Z,97307.78
2022-09-06T06:27:41.027Z,97313.28
2022-09-06T06:30:17.795Z,97322.66
2022-09-06T06:32:46.473Z,97320.72
2022-09-06T06:35:14.774Z,97318.19
2022-09-06T06:37:42.857Z,97324.22
2022-09-06T06:40:11.662Z,97335.41
2022-09-06T06:42:39.773Z,97328.28
2022-09-06T06:45:11.142Z,97324.66
2022-09-06T06:47:39.253Z,97317.25
2022-09-06T06:50:08.233Z,97317.72
2022-09-06T06:52:36.314Z,97311.72
2022-09-06T06:55:05.959Z,97298.59
2022-09-06T06:57:34.060Z,97295.16
2022-09-06T07:00:03.508Z,97300.88
2022-09-06T07:02:33.071Z,97310.13
2022-09-06T07:05:01.273Z,97316.84
2022-09-06T07:12:50.696Z,97313.09
2022-09-06T07:15:18.808Z,97313.59
2022-09-06T07:17:48.262Z,97317.06
2022-09-06T07:20:16.814Z,97309.50
2022-09-06T07:22:44.955Z,97314.41
2022-09-06T07:25:20.366Z,97311.69
2022-09-06T07:27:50.128Z,97300.41
2022-09-06T07:30:19.984Z,97305.41
2022-09-06T07:32:49.924Z,97300.22
2022-09-06T07:35:20.372Z,97306.81
2022-09-06T07:37:55.186Z,97303.78
2022-09-06T07:40:23.578Z,97305.28
2022-09-06T07:42:51.748Z,97302.56
2022-09-06T07:45:20.212Z,97298.59
2022-09-06T07:50:47.669Z,97303.47
2022-09-06T07:53:23.325Z,97305.19
2022-09-06T07:55:59.844Z,97318.66
2022-09-06T07:58:28.127Z,97308.00
2022-09-06T08:00:56.349Z,97296.94
2022-09-06T08:03:25.749Z,97309.19
2022-09-06T08:06:09.752Z,97307.81
2022-09-06T08:11:28.370Z,97298.50
2022-09-06T08:13:57.647Z,97320.19
2022-09-06T08:16:27.894Z,97325.84
2022-09-06T08:18:58.817Z,97327.41
2022-09-06T08:21:28.707Z,97327.53
2022-09-06T08:23:58.388Z,97309.63
2022-09-06T08:26:27.231Z,97317.19
2022-09-06T08:28:57.427Z,97311.16
2022-09-06T08:31:25.645Z,97307.47
2022-09-06T08:33:54.092Z,97307.47
2022-09-06T08:36:23.711Z,97310.03
2022-09-06T08:38:51.759Z,97300.13
2022-09-06T08:41:25.949Z,97298.00
2022-09-06T08:46:52.403Z,97304.88
2022-09-06T08:49:20.637Z,97301.00
2022-09-06T08:52:12.909Z,97288.59
2022-09-06T08:54:42.545Z,97283.25
2022-09-06T08:57:22.022Z,97275.75
2022-09-06T08:59:51.681Z,97274.81
2022-09-06T09:02:22.054Z,97274.28
2022-09-06T09:04:52.518Z,97280.06
2022-09-06T09:07:31.268Z,97267.03
2022-09-06T09:09:59.639Z,97263.25
2022-09-06T09:12:29.353Z,97270.13
2022-09-06T09:15:03.346Z,97272.56
2022-09-06T09:17:32.633Z,97262.94
2022-09-06T09:20:00.687Z,97263.53
2022-09-06T09:22:30.120Z,97257.09
2022-09-06T09:24:59.163Z,97257.97
2022-09-06T09:27:28.930Z,97252.66
2022-09-06T09:32:50.662Z,97248.38
2022-09-06T09:35:31.897Z,97234.41
2022-09-06T09:38:11.802Z,97237.69
2022-09-06T09:40:42.115Z,97237.03
2022-09-06T09:43:14.396Z,97240.72
2022-09-06T09:45:42.610Z,97244.44
2022-09-06T09:48:22.929Z,97236.06
2022-09-06T09:50:51.175Z,97233.81
2022-09-06T09:53:22.691Z,97228.03
2022-09-06T09:55:56.606Z,97226.13
2022-09-06T09:58:32.869Z,97225.53
2022-09-06T10:01:18.469Z,97225.16
2022-09-06T10:09:34.869Z,97224.44
2022-09-06T10:12:03.354Z,97222.13
2022-09-06T10:14:32.782Z,97216.81
2022-09-06T10:17:01.569Z,97213.78
2022-09-06T10:19:40.838Z,97216.63
2022-09-06T10:22:20.677Z,97214.88
2022-09-06T10:25:09.178Z,97218.94
2022-09-06T10:27:55.472Z,97215.84
2022-09-06T10:30:30.671Z,97210.53
2022-09-06T10:33:01.678Z,97217.03
2022-09-06T10:35:32.338Z,97211.97
2022-09-06T10:38:16.862Z,97210.53
2022-09-06T10:40:53.211Z,97217.28
2022-09-06T10:43:21.787Z,97208.31
2022-09-06T10:45:59.196Z,97202.19
2022-09-06T10:48:30.350Z,97213.19
2022-09-06T10:51:01.066Z,97199.53
2022-09-06T10:53:44.894Z,97194.66
2022-09-06T10:56:17.915Z,97200.25
2022-09-06T11:01:43.419Z,97184.81
2022-09-06T11:04:20.109Z,97186.38
2022-09-06T11:06:52.247Z,97185.22
2022-09-06T11:09:25.551Z,97183.31
2022-09-06T11:12:03.515Z,97172.38
2022-09-06T11:14:31.603Z,97170.94
2022-09-06T11:17:03.189Z,97183.56
2022-09-06T11:19:34.155Z,97173.03
2022-09-06T11:22:27.340Z,97174.22
2022-09-06T11:25:23.955Z,97167.22
2022-09-06T11:27:58.115Z,97168.03
2022-09-06T11:30:26.948Z,97153.53
2022-09-06T11:33:07.877Z,97162.94
2022-09-06T11:35:36.302Z,97152.81
2022-09-06T11:38:06.456Z,97156.34
2022-09-06T11:40:38.553Z,97159.94
2022-09-06T11:43:13.471Z,97160.41
2022-09-06T11:45:44.825Z,97152.19
2022-09-06T11:48:37.321Z,97143.91
2022-09-06T11:51:07.810Z,97141.19
2022-09-06T11:53:37.419Z,97146.34
2022-09-06T11:56:15.632Z,97147.22
2022-09-06T11:58:52.865Z,97124.38
2022-09-06T12:01:40.967Z,97126.03
2022-09-06T12:04:11.241Z,97129.22
2022-09-06T12:06:41.644Z,97130.84
2022-09-06T12:09:30.814Z,97117.88
2022-09-06T12:11:59.886Z,97118.28
2022-09-06T12:14:34.701Z,97126.19
2022-09-06T12:17:27.443Z,97121.44
2022-09-06T12:19:59.568Z,97121.47
2022-09-06T12:23:04.416Z,97116.81
2022-09-06T12:25:56.055Z,97114.47
2022-09-06T12:28:39.116Z,97123.56
2022-09-06T12:31:32.176Z,97112.13
2022-09-06T12:34:00.831Z,97114.13
2022-09-06T12:36:31.937Z,97109.00
2022-09-06T12:39:02.258Z,97110.59
2022-09-06T12:41:32.850Z,97098.41
2022-09-06T12:44:02.891Z,97099.56
2022-09-06T12:46:32.860Z,97092.09
2022-09-06T12:49:03.051Z,97091.31
2022-09-06T12:51:31.251Z,97091.69
2022-09-06T12:54:01.219Z,97086.19
2022-09-06T12:56:30.499Z,97081.47
2022-09-06T12:59:14.419Z,97078.31
2022-09-06T13:01:49.293Z,97069.66
2022-09-06T13:04:27.755Z,97073.59
2022-09-06T13:06:56.874Z,97077.91
2022-09-06T13:09:27.028Z,97073.59
2022-09-06T13:11:58.026Z,97072.41
2022-09-06T13:14:27.223Z,97059.44
2022-09-06T13:16:57.905Z,97073.56
2022-09-06T13:19:42.637Z,97060.09
2022-09-06T13:22:11.907Z,97068.72
2022-09-06T13:24:49.120Z,97062.81
2022-09-06T13:27:34.583Z,97059.19
2022-09-06T13:30:05.768Z,97050.56
2022-09-06T13:32:35.727Z,97051.41
2022-09-06T13:35:04.460Z,97050.56
2022-09-06T13:37:33.847Z,97040.28
2022-09-06T13:40:05.189Z,97043.00
2022-09-06T13:42:34.128Z,97041.41
2022-09-06T13:45:17.507Z,97044.16
2022-09-06T13:47:46.943Z,97038.16
2022-09-06T13:50:15.949Z,97028.25
2022-09-06T13:53:09.286Z,97034.50
2022-09-06T13:55:37.477Z,97032.88
2022-09-06T13:58:06.157Z,97033.72
2022-09-06T14:00:34.350Z,97028.94
2022-09-06T14:03:03.861Z,97024.19
2022-09-06T14:05:32.087Z,97036.28
2022-09-06T14:08:00.401Z,97022.84
2022-09-06T14:10:28.513Z,97028.38
2022-09-06T14:12:56.622Z,97018.81
2022-09-06T14:15:25.161Z,97013.63
2022-09-06T14:17:53.366Z,97017.94
2022-09-06T14:20:22.806Z,97008.50
2022-09-06T14:22:50.924Z,97011.50
2022-09-06T14:25:18.989Z,97007.19
2022-09-06T14:27:48.535Z,97007.53
2022-09-06T14:30:16.727Z,97015.75
2022-09-06T14:32:44.807Z,97004.22
2022-09-06T14:35:13.331Z,97004.22
2022-09-06T14:37:43.467Z,97009.84
2022-09-06T14:40:12.022Z,97004.53
2022-09-06T14:42:41.734Z,97002.53
2022-09-06T14:45:10.673Z,97002.59
2022-09-06T14:47:39.070Z,97000.09
2022-09-06T14:50:08.293Z,96998.69
2022-09-06T14:52:36.429Z,96994.53
2022-09-06T14:55:06.843Z,96995.19
2022-09-06T14:57:35.354Z,96992.75
2022-09-06T15:00:08.337Z,96995.06
2022-09-06T15:02:36.694Z,96983.94
2022-09-06T15:05:05.848Z,96986.31
2022-09-06T15:07:33.882Z,96984.41
2022-09-06T15:10:03.223Z,96983.56
2022-09-06T15:12:32.675Z,96984.34
2022-09-06T15:15:00.754Z,96986.69
2022-09-06T15:17:28.817Z,96993.72
2022-09-06T15:19:56.916Z,96989.81
2022-09-06T15:22:24.996Z,96986.69
2022-09-06T15:24:53.191Z,96981.84
2022-09-06T15:27:21.576Z,96983.63
2022-09-06T15:29:51.538Z,96974.06
2022-09-06T15:32:19.740Z,96994.06
2022-09-06T15:34:47.842Z,96985.44
2022-09-06T15:37:15.903Z,96985.19
2022-09-06T15:39:44.065Z,96980.00
2022-09-06T15:42:12.166Z,96976.72
2022-09-06T15:44:40.708Z,96974.31
2022-09-06T15:47:10.210Z,96970.78
2022-09-06T15:49:38.533Z,96971.47
2022-09-06T15:52:08.012Z,96971.84
2022-09-06T15:54:53.941Z,96966.38
2022-09-06T15:57:22.285Z,96963.13
2022-09-06T15:59:50.385Z,96959.78
2022-09-06T16:02:19.986Z,96959.38
2022-09-06T16:04:48.120Z,96968.88
2022-09-06T16:07:16.281Z,96955.50
2022-09-06T16:09:45.379Z,96953.88
2022-09-06T16:12:13.424Z,96960.16
2022-09-06T16:14:41.573Z,96950.81
2022-09-06T16:17:09.685Z,96953.75
2022-09-06T16:19:39.860Z,96949.78
2022-09-06T16:22:08.009Z,96951.78
2022-09-06T16:24:36.214Z,96945.44
2022-09-06T16:27:04.456Z,96945.38
2022-09-06T16:29:32.581Z,96947.78
2022-09-06T16:32:00.758Z,96940.63
2022-09-06T16:34:28.868Z,96941.50
2022-09-06T16:36:58.460Z,96944.63
2022-09-06T16:39:27.077Z,96935.97
2022-09-06T16:41:55.206Z,96947.25
2022-09-06T16:44:23.270Z,96936.16
2022-09-06T16:46:53.002Z,96940.06
2022-09-06T16:49:21.376Z,96942.38
2022-09-06T16:51:51.120Z,96934.88
2022-09-06T16:54:20.762Z,96931.78
2022-09-06T16:56:49.071Z,96933.75
2022-09-06T16:59:17.391Z,96934.53
2022-09-06T17:01:46.230Z,96933.00
2022-09-06T17:04:14.618Z,96933.84
2022-09-06T17:06:45.881Z,96931.09
2022-09-06T17:09:15.513Z,96928.38
2022-09-06T17:11:45.048Z,96927.59
2022-09-06T17:14:13.214Z,96920.13
2022-09-06T17:16:58.808Z,96924.91
2022-09-06T17:19:27.611Z,96924.16
2022-09-06T17:21:55.749Z,96924.56
2022-09-06T17:24:23.900Z,96927.00
2022-09-06T17:26:53.622Z,96927.03
2022-09-06T17:29:21.842Z,96927.44
2022-09-06T17:31:53.993Z,96923.53
2022-09-06T17:34:22.372Z,96924.75
2022-09-06T17:36:50.478Z,96920.47
2022-09-06T17:39:21.948Z,96923.25
2022-09-06T17:41:51.068Z,96925.25
2022-09-06T17:44:22.038Z,96928.00
2022-09-06T17:47:11.960Z,96929.59
2022-09-06T17:49:39.369Z,96930.03
2022-09-06T17:52:07.525Z,96931.97
2022-09-06T17:54:35.653Z,96932.38
2022-09-06T17:57:03.801Z,96942.22
2022-09-06T17:59:35.762Z,96939.88
2022-09-06T18:02:05.043Z,96954.06
2022-09-06T18:04:33.242Z,96958.00
2022-09-06T18:07:01.683Z,96962.75
2022-09-06T18:09:29.950Z,96967.81
2022-09-06T18:11:58.594Z,96962.69
2022-09-06T18:14:28.657Z,96972.13
2022-09-06T18:16:58.276Z,96981.56
2022-09-06T18:19:27.508Z,96976.06
2022-09-06T18:21:57.219Z,96974.47
2022-09-06T18:24:25.593Z,96976.03
2022-09-06T18:26:53.877Z,96985.88
2022-09-06T18:29:22.084Z,96986.59
2022-09-06T18:31:53.559Z,96989.75
2022-09-06T18:34:23.205Z,96997.16
2022-09-06T18:36:51.472Z,97005.00
2022-09-06T18:39:20.424Z,97006.16
2022-09-06T18:42:00.824Z,97003.41
2022-09-06T18:44:32.418Z,97016.72
2022-09-06T18:47:02.206Z,97013.56
2022-09-06T18:49:32.529Z,97012.78
2022-09-06T18:52:01.294Z,97004.91
2022-09-06T18:54:29.610Z,97005.28
2022-09-06T18:56:57.815Z,97008.41
2022-09-06T18:59:25.978Z,97002.88
2022-09-06T19:01:54.156Z,97007.16
2022-09-06T19:04:22.500Z,96996.97
2022-09-06T19:06:52.025Z,96997.34
2022-09-06T19:09:20.458Z,96989.47
2022-09-06T19:11:51.618Z,96987.47
2022-09-06T19:14:20.357Z,96985.09
2022-09-06T19:16:50.213Z,96979.59
2022-09-06T19:19:18.494Z,96985.44
2022-09-06T19:21:46.598Z,96982.66
2022-09-06T19:24:16.306Z,96977.53
2022-09-06T19:26:45.207Z,96983.00
2022-09-06T19:29:15.598Z,96977.88
2022-09-06T19:31:45.341Z,96977.06
2022-09-06T19:34:15.493Z,96973.50
2022-09-06T19:36:44.538Z,96976.19
2022-09-06T19:39:15.121Z,96979.28
2022-09-06T19:41:46.769Z,96976.88
2022-09-06T19:44:15.802Z,96974.50
2022-09-06T19:46:46.115Z,96966.63
2022-09-06T19:49:15.032Z,96968.91
2022-09-06T19:51:44.302Z,96970.38
2022-09-06T19:54:12.608Z,96968.31
2022-09-06T19:56:40.665Z,96965.88
2022-09-06T19:59:12.185Z,96973.66
2022-09-06T20:01:41.786Z,96972.88
2022-09-06T20:04:11.953Z,96976.81
2022-09-06T20:06:40.382Z,96969.31
2022-09-06T20:09:10.509Z,96966.13
2022-09-06T20:11:40.345Z,96966.13
2022-09-06T20:14:10.310Z,96968.41
2022-09-06T20:16:41.923Z,96974.22
2022-09-06T20:19:12.355Z,96967.13
2022-09-06T20:21:40.536Z,96965.78
2022-09-06T20:24:08.945Z,96960.28
2022-09-06T20:26:37.786Z,96959.84
2022-09-06T20:29:06.799Z,96956.31
2022-09-06T20:31:38.079Z,96958.59
2022-09-06T20:34:07.392Z,96952.72
2022-09-06T20:36:35.539Z,96948.78
2022-09-06T20:39:03.777Z,96949.94
2022-09-06T20:41:32.213Z,96946.81
2022-09-06T20:44:00.937Z,96938.94
2022-09-06T20:46:31.025Z,96942.06
2022-09-06T20:49:04.236Z,96940.44
2022-09-06T20:51:32.964Z,96934.94
2022-09-06T20:54:01.806Z,96929.41
2022-09-06T20:56:31.678Z,96913.75
2022-09-06T20:59:02.514Z,96914.47
2022-09-06T21:01:33.524Z,96925.38
2022-09-06T21:04:04.694Z,96922.19
2022-09-06T21:06:35.619Z,96931.50
2022-09-06T21:09:04.633Z,96935.31
2022-09-06T21:11:33.024Z,96928.94
2022-09-06T21:14:25.834Z,96927.66
2022-09-06T21:16:53.882Z,96937.34
2022-09-06T21:19:23.352Z,96927.47
2022-09-06T21:21:51.427Z,96923.13
2022-09-06T21:24:19.481Z,96917.63
2022-09-06T21:26:47.559Z,96924.59
2022-09-06T21:29:15.619Z,96911.69
2022-09-06T21:31:43.708Z,96922.53
2022-09-06T21:34:17.001Z,96920.13
2022-09-06T21:36:46.776Z,96918.72
2022-09-06T21:39:15.270Z,96914.72
2022-09-06T21:41:44.250Z,96917.66
2022-09-06T21:44:13.180Z,96913.78
2022-09-06T21:46:41.840Z,96918.44
2022-09-06T21:49:11.885Z,96916.06
2022-09-06T21:51:40.663Z,96943.41
2022-09-06T21:54:10.255Z,96930.13
2022-09-06T21:56:39.676Z,96943.78
2022-09-06T21:59:08.467Z,96946.44
2022-09-06T22:01:37.711Z,96940.91
2022-09-06T22:04:06.497Z,96946.28
2022-09-06T22:06:35.710Z,96952.50
2022-09-06T22:09:11.341Z,96953.63
2022-09-06T22:11:42.258Z,96950.84
2022-09-06T22:14:13.033Z,96951.22
2022-09-06T22:16:41.844Z,96952.31
2022-09-06T22:19:10.265Z,96957.34
2022-09-06T22:21:38.746Z,96954.56
2022-09-06T22:24:08.561Z,96958.78
2022-09-06T22:26:37.985Z,96959.16
2022-09-06T22:29:09.081Z,96958.66
2022-09-06T22:31:37.659Z,96947.69
2022-09-06T22:34:06.272Z,96950.31
2022-09-06T22:36:34.564Z,96945.25
2022-09-06T22:39:02.596Z,96948.69
2022-09-06T22:41:32.848Z,96949.44
2022-09-06T22:44:01.078Z,96945.47
2022-09-06T22:46:30.614Z,96947.34
2022-09-06T22:48:58.867Z,96955.47
2022-09-06T22:51:27.185Z,96949.00
2022-09-06T22:53:55.266Z,96951.09
2022-09-06T22:56:23.364Z,96947.78
2022-09-06T22:58:51.459Z,96943.00
2022-09-06T23:01:19.598Z,96950.00
2022-09-06T23:03:49.922Z,96951.50
2022-09-06T23:06:18.081Z,96950.69
2022-09-06T23:08:46.149Z,96952.84
2022-09-06T23:11:18.841Z,96942.22
2022-09-06T23:13:47.331Z,96947.59
2022-09-06T23:16:17.139Z,96947.09
2022-09-06T23:18:45.733Z,96946.50
2022-09-06T23:21:16.962Z,96943.84
2022-09-06T23:23:45.334Z,96930.94
2022-09-06T23:26:14.979Z,96931.28
2022-09-06T23:28:43.633Z,96921.53
2022-09-06T23:31:12.947Z,96921.09
2022-09-06T23:33:41.947Z,96928.84
2022-09-06T23:36:11.560Z,96925.34
2022-09-06T23:38:42.676Z,96923.06
2022-09-06T23:41:11.084Z,96927.66
2022-09-06T23:43:39.501Z,96921.88
2022-09-06T23:46:08.124Z,96918.25
2022-09-06T23:48:36.754Z,96912.81
2022-09-06T23:51:05.170Z,96907.28
2022-09-06T23:53:33.889Z,96904.13
2022-09-06T23:56:03.813Z,96908.22
2022-09-06T23:58:32.236Z,96899.63
